createdAt,value
2019-05-26T00:00:38.611Z,1010.46
2019-05-26T00:01:19.255Z,1010.49
2019-05-26T00:01:59.815Z,1010.5
2019-05-26T00:02:40.401Z,1010.47
2019-05-26T00:03:20.959Z,1010.48
2019-05-26T00:04:01.526Z,1010.46
2019-05-26T00:04:42.076Z,1010.49
2019-05-26T00:05:22.681Z,1010.48
2019-05-26T00:06:03.257Z,1010.48
2019-05-26T00:06:43.837Z,1010.46
2019-05-26T00:07:30.441Z,1010.45
2019-05-26T00:08:04.985Z,1010.48
2019-05-26T00:08:45.585Z,1010.5
2019-05-26T00:09:26.162Z,1010.46
2019-05-26T00:10:06.832Z,1010.43
2019-05-26T00:10:47.267Z,1010.41
2019-05-26T00:11:27.847Z,1010.38
2019-05-26T00:12:08.400Z,1010.36
2019-05-26T00:12:48.965Z,1010.38
2019-05-26T00:13:29.532Z,1010.36
2019-05-26T00:14:10.118Z,1010.36
2019-05-26T00:14:50.702Z,1010.35
2019-05-26T00:15:31.266Z,1010.35
2019-05-26T00:16:11.826Z,1010.35
2019-05-26T00:16:52.391Z,1010.33
2019-05-26T00:17:32.955Z,1010.35
2019-05-26T00:18:13.520Z,1010.33
2019-05-26T00:18:54.094Z,1010.3
2019-05-26T00:19:34.711Z,1010.3
2019-05-26T00:20:15.510Z,1010.27
2019-05-26T00:20:56.082Z,1010.25
2019-05-26T00:21:36.651Z,1010.26
2019-05-26T00:22:17.369Z,1010.24
2019-05-26T00:22:57.929Z,1010.25
2019-05-26T00:23:38.514Z,1010.29
2019-05-26T00:24:19.118Z,1010.33
2019-05-26T00:24:59.750Z,1010.29
2019-05-26T00:25:40.301Z,1010.28
2019-05-26T00:26:20.895Z,1010.27
2019-05-26T00:27:01.508Z,1010.26
2019-05-26T00:27:42.055Z,1010.29
2019-05-26T00:28:22.608Z,1010.27
2019-05-26T00:29:03.202Z,1010.29
2019-05-26T00:29:43.762Z,1010.27
2019-05-26T00:30:24.321Z,1010.22
2019-05-26T00:31:04.914Z,1010.23
2019-05-26T00:31:45.507Z,1010.25
2019-05-26T00:32:26.084Z,1010.24
2019-05-26T00:33:06.651Z,1010.18
2019-05-26T00:33:47.262Z,1010.25
2019-05-26T00:34:27.840Z,1010.2
2019-05-26T00:35:08.403Z,1010.21
2019-05-26T00:35:48.999Z,1010.19
2019-05-26T00:36:29.561Z,1010.24
2019-05-26T00:37:10.127Z,1010.17
2019-05-26T00:37:50.938Z,1010.22
2019-05-26T00:38:31.261Z,1010.22
2019-05-26T00:39:11.843Z,1010.16
2019-05-26T00:39:52.473Z,1010.19
2019-05-26T00:40:33.065Z,1010.16
2019-05-26T00:41:13.616Z,1010.18
2019-05-26T00:41:54.194Z,1010.18
2019-05-26T00:42:34.756Z,1010.19
2019-05-26T00:43:15.352Z,1010.19
2019-05-26T00:43:55.915Z,1010.14
2019-05-26T00:44:36.512Z,1010.09
2019-05-26T00:45:17.030Z,1010.08
2019-05-26T00:45:57.617Z,1010.07
2019-05-26T00:46:38.177Z,1010.09
2019-05-26T00:47:18.743Z,1010.06
2019-05-26T00:47:59.294Z,1010.1
2019-05-26T00:48:39.874Z,1010.03
2019-05-26T00:49:20.439Z,1010.06
2019-05-26T00:50:00.984Z,1010.05
2019-05-26T00:50:41.539Z,1010.09
2019-05-26T00:51:22.109Z,1010.07
2019-05-26T00:52:02.680Z,1010.1
2019-05-26T00:52:43.244Z,1010.1
2019-05-26T00:53:23.840Z,1010.1
2019-05-26T00:54:04.406Z,1010.13
2019-05-26T00:54:44.996Z,1010.13
2019-05-26T00:55:25.565Z,1010.11
2019-05-26T00:56:06.146Z,1010.11
2019-05-26T00:56:46.729Z,1010.13
2019-05-26T00:57:27.297Z,1010.09
2019-05-26T00:58:07.866Z,1010.09
2019-05-26T00:58:48.420Z,1010.06
2019-05-26T01:01:01.245Z,1010.11
2019-05-26T01:01:41.788Z,1010.1
2019-05-26T01:02:22.378Z,1010.1
2019-05-26T01:03:02.955Z,1010.03
2019-05-26T01:03:43.509Z,1010.09
2019-05-26T01:04:24.056Z,1010.07
2019-05-26T01:05:04.625Z,1010.05
2019-05-26T01:05:45.182Z,1010.06
2019-05-26T01:06:25.751Z,1010.09
2019-05-26T01:07:06.362Z,1010.06
2019-05-26T01:07:46.935Z,1010.08
2019-05-26T01:08:27.475Z,1010.06
2019-05-26T01:09:08.042Z,1010.05
2019-05-26T01:09:48.620Z,1010.06
2019-05-26T01:10:29.193Z,1010.06
2019-05-26T01:11:09.740Z,1010.03
2019-05-26T01:11:50.298Z,1010.05
2019-05-26T01:12:30.855Z,1010.07
2019-05-26T01:13:11.479Z,1010.08
2019-05-26T01:13:52.041Z,1010.03
2019-05-26T01:14:32.606Z,1010.02
2019-05-26T01:15:13.155Z,1010.01
2019-05-26T01:15:53.764Z,1010.03
2019-05-26T01:16:34.315Z,1010.04
2019-05-26T01:17:14.880Z,1010.06
2019-05-26T01:17:55.449Z,1010.04
2019-05-26T01:18:36.067Z,1010.07
2019-05-26T01:19:16.626Z,1010.06
2019-05-26T01:19:57.651Z,1010.02
2019-05-26T01:20:38.213Z,1010.03
2019-05-26T01:21:18.772Z,1010.05
2019-05-26T01:21:59.335Z,1010.08
2019-05-26T01:22:39.933Z,1010.03
2019-05-26T01:23:20.501Z,1010.06
2019-05-26T01:24:01.057Z,1010.04
2019-05-26T01:24:41.622Z,1010.08
2019-05-26T01:25:22.193Z,1010.03
2019-05-26T01:26:02.758Z,1010.08
2019-05-26T01:26:43.355Z,1010.06
2019-05-26T01:27:23.963Z,1010.07
2019-05-26T01:28:04.808Z,1010.07
2019-05-26T01:28:45.348Z,1010.06
2019-05-26T01:29:25.960Z,1010.08
2019-05-26T01:30:06.511Z,1010.1
2019-05-26T01:30:47.109Z,1010.02
2019-05-26T01:31:27.692Z,1010.02
2019-05-26T01:32:08.261Z,1010.02
2019-05-26T01:32:48.834Z,1010.08
2019-05-26T01:33:29.391Z,1010.05
2019-05-26T01:34:09.952Z,1010.06
2019-05-26T01:34:50.518Z,1010.04
2019-05-26T01:35:31.090Z,1010.06
2019-05-26T01:36:11.649Z,1010.07
2019-05-26T01:36:52.243Z,1010.07
2019-05-26T01:37:32.767Z,1010.06
2019-05-26T01:38:22.934Z,1010.08
2019-05-26T01:38:53.905Z,1010.04
2019-05-26T01:39:34.472Z,1010.05
2019-05-26T01:40:15.020Z,1010.08
2019-05-26T01:40:55.608Z,1010.07
2019-05-26T01:41:36.167Z,1010.03
2019-05-26T01:42:16.738Z,1010.06
2019-05-26T01:42:57.309Z,1010.03
2019-05-26T01:43:37.862Z,1010.05
2019-05-26T01:44:18.431Z,1010.05
2019-05-26T01:44:59.007Z,1010.03
2019-05-26T01:45:39.627Z,1010.02
2019-05-26T01:46:20.169Z,1010.06
2019-05-26T01:47:00.726Z,1010.05
2019-05-26T01:47:41.282Z,1010.01
2019-05-26T01:48:21.846Z,1010.03
2019-05-26T01:49:02.447Z,1010.04
2019-05-26T01:49:43.134Z,1010.04
2019-05-26T01:50:23.709Z,1009.99
2019-05-26T01:51:04.356Z,1010
2019-05-26T01:51:44.884Z,1009.96
2019-05-26T01:52:25.453Z,1009.96
2019-05-26T01:53:06.058Z,1009.98
2019-05-26T01:53:46.630Z,1009.98
2019-05-26T01:54:27.190Z,1009.97
2019-05-26T01:55:07.725Z,1009.99
2019-05-26T01:55:48.292Z,1010.03
2019-05-26T01:56:28.846Z,1010.02
2019-05-26T01:57:09.429Z,1010
2019-05-26T01:57:49.985Z,1010
2019-05-26T01:58:30.548Z,1010
2019-05-26T01:59:11.124Z,1010.01
2019-05-26T01:59:51.682Z,1010.02
2019-05-26T02:00:32.251Z,1010.02
2019-05-26T02:01:12.807Z,1010.02
2019-05-26T02:01:53.347Z,1010.02
2019-05-26T02:02:33.901Z,1010.02
2019-05-26T02:03:14.468Z,1010
2019-05-26T02:03:55.028Z,1010.05
2019-05-26T02:04:35.600Z,1010.03
2019-05-26T02:05:16.176Z,1010.06
2019-05-26T02:05:56.736Z,1010.05
2019-05-26T02:06:37.312Z,1010
2019-05-26T02:07:17.908Z,1010.01
2019-05-26T02:07:58.465Z,1010.02
2019-05-26T02:08:39.905Z,1010
2019-05-26T02:09:19.559Z,1010.06
2019-05-26T02:10:00.131Z,1010.05
2019-05-26T02:10:40.704Z,1010.04
2019-05-26T02:11:21.265Z,1010.03
2019-05-26T02:12:01.831Z,1009.98
2019-05-26T02:12:42.406Z,1009.98
2019-05-26T02:13:22.968Z,1009.95
2019-05-26T02:14:03.530Z,1009.96
2019-05-26T02:14:44.161Z,1009.93
2019-05-26T02:15:24.725Z,1009.94
2019-05-26T02:16:05.301Z,1009.95
2019-05-26T02:16:45.871Z,1010
2019-05-26T02:17:26.431Z,1009.99
2019-05-26T02:18:06.987Z,1009.99
2019-05-26T02:18:47.542Z,1009.99
2019-05-26T02:19:28.100Z,1010
2019-05-26T02:20:08.736Z,1009.98
2019-05-26T02:20:49.309Z,1010
2019-05-26T02:23:48.109Z,1010.01
2019-05-26T02:24:28.710Z,1010.03
2019-05-26T02:25:09.211Z,1009.99
2019-05-26T02:25:49.828Z,1009.97
2019-05-26T02:26:30.385Z,1009.96
2019-05-26T02:27:10.955Z,1009.97
2019-05-26T02:27:51.821Z,1010.01
2019-05-26T02:28:32.351Z,1009.99
2019-05-26T02:29:12.927Z,1009.98
2019-05-26T02:29:53.487Z,1009.96
2019-05-26T02:30:34.050Z,1009.96
2019-05-26T02:31:14.626Z,1009.96
2019-05-26T02:31:55.176Z,1009.97
2019-05-26T02:32:35.737Z,1009.92
2019-05-26T02:33:16.302Z,1009.97
2019-05-26T02:33:56.867Z,1009.95
2019-05-26T02:34:37.431Z,1009.89
2019-05-26T02:35:18.006Z,1009.92
2019-05-26T02:35:58.565Z,1009.93
2019-05-26T02:36:39.124Z,1009.93
2019-05-26T02:37:19.685Z,1009.91
2019-05-26T02:38:00.243Z,1009.96
2019-05-26T02:38:59.689Z,1009.95
2019-05-26T02:39:21.400Z,1009.92
2019-05-26T02:40:01.954Z,1009.96
2019-05-26T02:40:42.498Z,1009.93
2019-05-26T02:41:23.070Z,1009.96
2019-05-26T02:42:03.627Z,1009.9
2019-05-26T02:42:44.234Z,1009.95
2019-05-26T02:43:24.830Z,1009.98
2019-05-26T02:44:05.399Z,1010.01
2019-05-26T02:44:46.000Z,1009.98
2019-05-26T02:45:26.561Z,1009.99
2019-05-26T02:46:07.116Z,1010
2019-05-26T02:46:47.696Z,1009.99
2019-05-26T02:49:47.525Z,1009.96
2019-05-26T02:50:28.081Z,1009.99
2019-05-26T02:51:08.673Z,1009.99
2019-05-26T02:51:49.227Z,1009.98
2019-05-26T02:52:29.821Z,1009.99
2019-05-26T02:53:10.361Z,1009.99
2019-05-26T02:53:50.913Z,1010.02
2019-05-26T02:54:31.520Z,1010.03
2019-05-26T02:55:12.088Z,1009.99
2019-05-26T02:55:52.631Z,1009.95
2019-05-26T02:56:33.204Z,1009.98
2019-05-26T02:57:13.761Z,1009.98
2019-05-26T02:57:54.325Z,1009.99
2019-05-26T02:58:34.943Z,1009.98
2019-05-26T02:59:15.502Z,1010
2019-05-26T02:59:56.065Z,1009.99
2019-05-26T03:00:36.666Z,1010
2019-05-26T03:01:17.218Z,1009.98
2019-05-26T03:02:03.506Z,1010.02
2019-05-26T03:02:38.353Z,1010
2019-05-26T03:03:18.923Z,1010.01
2019-05-26T03:03:59.492Z,1010.01
2019-05-26T03:04:40.068Z,1010.02
2019-05-26T03:05:20.632Z,1010
2019-05-26T03:06:01.203Z,1010.02
2019-05-26T03:06:41.761Z,1009.99
2019-05-26T03:07:22.346Z,1010.03
2019-05-26T03:08:02.878Z,1010
2019-05-26T03:08:43.450Z,1009.99
2019-05-26T03:09:24.119Z,1010.02
2019-05-26T03:10:04.567Z,1010.05
2019-05-26T03:10:45.130Z,1010.03
2019-05-26T03:11:25.705Z,1010.06
2019-05-26T03:12:06.272Z,1009.99
2019-05-26T03:12:46.841Z,1010.05
2019-05-26T03:13:27.386Z,1010.07
2019-05-26T03:14:07.931Z,1010.04
2019-05-26T03:14:48.489Z,1010.03
2019-05-26T03:15:29.040Z,1010
2019-05-26T03:16:09.609Z,1010.06
2019-05-26T03:16:50.162Z,1010.06
2019-05-26T03:17:30.742Z,1010
2019-05-26T03:18:11.291Z,1009.97
2019-05-26T03:18:51.854Z,1009.97
2019-05-26T03:19:32.432Z,1010.02
2019-05-26T03:20:12.994Z,1010.02
2019-05-26T03:20:53.547Z,1010
2019-05-26T03:21:34.190Z,1010.01
2019-05-26T03:22:14.736Z,1009.99
2019-05-26T03:22:55.299Z,1009.99
2019-05-26T03:23:35.860Z,1010.01
2019-05-26T03:24:16.425Z,1010.01
2019-05-26T03:24:56.986Z,1009.97
2019-05-26T03:25:37.536Z,1009.99
2019-05-26T03:26:18.101Z,1009.95
2019-05-26T03:26:58.641Z,1009.99
2019-05-26T03:27:39.552Z,1009.99
2019-05-26T03:28:20.157Z,1009.99
2019-05-26T03:29:00.743Z,1009.97
2019-05-26T03:29:41.310Z,1010.03
2019-05-26T03:30:21.869Z,1010.01
2019-05-26T03:31:02.457Z,1009.99
2019-05-26T03:31:42.995Z,1009.97
2019-05-26T03:32:23.563Z,1009.97
2019-05-26T03:33:04.118Z,1009.91
2019-05-26T03:33:44.667Z,1009.93
2019-05-26T03:34:25.219Z,1009.92
2019-05-26T03:35:05.803Z,1009.93
2019-05-26T03:35:46.489Z,1009.93
2019-05-26T03:36:26.924Z,1009.91
2019-05-26T03:37:07.496Z,1009.92
2019-05-26T03:37:48.095Z,1009.95
2019-05-26T03:38:28.657Z,1009.95
2019-05-26T03:39:09.206Z,1009.92
2019-05-26T03:39:49.771Z,1009.98
2019-05-26T03:40:30.355Z,1009.95
2019-05-26T03:41:10.885Z,1009.94
2019-05-26T03:41:51.448Z,1009.95
2019-05-26T03:42:32.011Z,1009.96
2019-05-26T03:43:12.560Z,1009.96
2019-05-26T03:43:53.146Z,1009.99
2019-05-26T03:44:33.698Z,1009.98
2019-05-26T03:45:14.263Z,1009.99
2019-05-26T03:45:54.812Z,1009.99
2019-05-26T03:46:35.394Z,1009.98
2019-05-26T03:47:16.920Z,1009.99
2019-05-26T03:47:56.518Z,1010.01
2019-05-26T03:48:37.096Z,1010
2019-05-26T03:49:17.660Z,1010.02
2019-05-26T03:49:58.222Z,1010.02
2019-05-26T03:50:38.819Z,1010.03
2019-05-26T03:51:19.361Z,1010.02
2019-05-26T03:51:59.911Z,1010.02
2019-05-26T03:52:40.485Z,1010.06
2019-05-26T03:53:21.048Z,1010.04
2019-05-26T03:54:01.606Z,1010.03
2019-05-26T03:54:42.174Z,1010.05
2019-05-26T03:55:22.740Z,1010.02
2019-05-26T03:56:03.299Z,1010.03
2019-05-26T03:56:43.878Z,1010.03
2019-05-26T03:57:24.430Z,1010.08
2019-05-26T03:58:05.006Z,1010.04
2019-05-26T03:58:45.571Z,1010.05
2019-05-26T03:59:26.155Z,1010.04
2019-05-26T04:00:06.746Z,1010.07
2019-05-26T04:00:47.265Z,1010.05
2019-05-26T04:01:27.824Z,1010.08
2019-05-26T04:02:08.396Z,1010.06
2019-05-26T04:02:48.939Z,1010.05
2019-05-26T04:03:29.493Z,1010.03
2019-05-26T04:04:10.045Z,1010.05
2019-05-26T04:04:50.613Z,1010.06
2019-05-26T04:05:31.195Z,1010.08
2019-05-26T04:06:11.790Z,1010.01
2019-05-26T04:06:52.350Z,1010.08
2019-05-26T04:07:32.915Z,1010.03
2019-05-26T04:08:13.482Z,1010.05
2019-05-26T04:08:54.050Z,1009.99
2019-05-26T04:09:34.598Z,1010.01
2019-05-26T04:10:15.158Z,1009.99
2019-05-26T04:10:55.769Z,1009.97
2019-05-26T04:11:36.349Z,1009.99
2019-05-26T04:12:16.870Z,1010
2019-05-26T04:12:57.428Z,1009.95
2019-05-26T04:13:38.004Z,1009.98
2019-05-26T04:14:18.563Z,1009.97
2019-05-26T04:14:59.140Z,1009.98
2019-05-26T04:15:39.701Z,1009.94
2019-05-26T04:16:20.268Z,1009.93
2019-05-26T04:17:00.837Z,1009.94
2019-05-26T04:17:41.378Z,1009.95
2019-05-26T04:18:21.931Z,1009.95
2019-05-26T04:19:02.494Z,1009.93
2019-05-26T04:19:43.041Z,1009.93
2019-05-26T04:20:23.605Z,1009.91
2019-05-26T04:21:04.179Z,1009.91
2019-05-26T04:21:44.756Z,1009.89
2019-05-26T04:22:25.325Z,1009.88
2019-05-26T04:23:05.928Z,1009.84
2019-05-26T04:23:46.434Z,1009.9
2019-05-26T04:24:27.004Z,1009.89
2019-05-26T04:25:07.556Z,1009.86
2019-05-26T04:25:48.128Z,1009.86
2019-05-26T04:26:28.763Z,1009.86
2019-05-26T04:27:09.308Z,1009.91
2019-05-26T04:27:49.893Z,1009.86
2019-05-26T04:28:30.450Z,1009.85
2019-05-26T04:29:11.000Z,1009.86
2019-05-26T04:29:51.565Z,1009.81
2019-05-26T04:30:32.125Z,1009.84
2019-05-26T04:31:12.671Z,1009.84
2019-05-26T04:31:53.264Z,1009.84
2019-05-26T04:32:33.812Z,1009.84
2019-05-26T04:33:14.400Z,1009.83
2019-05-26T04:33:54.963Z,1009.82
2019-05-26T04:34:35.650Z,1009.85
2019-05-26T04:35:16.228Z,1009.79
2019-05-26T04:35:56.785Z,1009.81
2019-05-26T04:36:37.335Z,1009.79
2019-05-26T04:37:17.910Z,1009.8
2019-05-26T04:37:58.480Z,1009.8
2019-05-26T04:38:39.045Z,1009.8
2019-05-26T04:39:19.610Z,1009.79
2019-05-26T04:40:00.164Z,1009.81
2019-05-26T04:40:40.726Z,1009.81
2019-05-26T04:41:21.284Z,1009.79
2019-05-26T04:42:01.859Z,1009.8
2019-05-26T04:42:42.430Z,1009.77
2019-05-26T04:43:22.995Z,1009.79
2019-05-26T04:44:03.583Z,1009.82
2019-05-26T04:44:44.157Z,1009.8
2019-05-26T04:45:24.718Z,1009.83
2019-05-26T04:46:05.266Z,1009.81
2019-05-26T04:46:45.863Z,1009.83
2019-05-26T04:47:26.419Z,1009.83
2019-05-26T04:48:06.994Z,1009.81
2019-05-26T04:48:47.572Z,1009.85
2019-05-26T04:49:28.097Z,1009.81
2019-05-26T04:50:08.690Z,1009.8
2019-05-26T04:50:49.256Z,1009.81
2019-05-26T04:51:29.820Z,1009.8
2019-05-26T04:52:10.378Z,1009.81
2019-05-26T04:53:05.039Z,1009.8
2019-05-26T04:53:31.507Z,1009.74
2019-05-26T04:54:12.076Z,1009.77
2019-05-26T04:54:52.640Z,1009.76
2019-05-26T04:55:33.222Z,1009.75
2019-05-26T04:56:13.795Z,1009.76
2019-05-26T04:56:54.335Z,1009.76
2019-05-26T04:57:34.908Z,1009.75
2019-05-26T04:58:15.466Z,1009.77
2019-05-26T04:58:56.035Z,1009.76
2019-05-26T04:59:36.617Z,1009.78
2019-05-26T05:00:17.192Z,1009.83
2019-05-26T05:00:57.750Z,1009.77
2019-05-26T05:01:38.357Z,1009.77
2019-05-26T05:02:18.900Z,1009.78
2019-05-26T05:02:59.446Z,1009.78
2019-05-26T05:03:40.004Z,1009.8
2019-05-26T05:04:20.556Z,1009.81
2019-05-26T05:05:01.127Z,1009.79
2019-05-26T05:05:41.717Z,1009.82
2019-05-26T05:06:22.275Z,1009.86
2019-05-26T05:07:02.846Z,1009.83
2019-05-26T05:07:43.417Z,1009.8
2019-05-26T05:08:24.019Z,1009.77
2019-05-26T05:09:04.578Z,1009.77
2019-05-26T05:09:45.147Z,1009.79
2019-05-26T05:10:39.366Z,1009.72
2019-05-26T05:11:06.294Z,1009.71
2019-05-26T05:11:46.857Z,1009.75
2019-05-26T05:12:27.459Z,1009.72
2019-05-26T05:13:08.122Z,1009.69
2019-05-26T05:13:48.700Z,1009.73
2019-05-26T05:14:29.264Z,1009.74
2019-05-26T05:15:09.823Z,1009.72
2019-05-26T05:15:50.385Z,1009.71
2019-05-26T05:16:30.948Z,1009.67
2019-05-26T05:17:11.499Z,1009.7
2019-05-26T05:17:52.059Z,1009.71
2019-05-26T05:18:32.611Z,1009.7
2019-05-26T05:19:13.178Z,1009.71
2019-05-26T05:19:53.761Z,1009.67
2019-05-26T05:20:34.326Z,1009.65
2019-05-26T05:21:14.911Z,1009.69
2019-05-26T05:21:55.482Z,1009.71
2019-05-26T05:22:36.038Z,1009.72
2019-05-26T05:23:16.613Z,1009.7
2019-05-26T05:23:57.165Z,1009.65
2019-05-26T05:24:37.725Z,1009.65
2019-05-26T05:25:18.272Z,1009.69
2019-05-26T05:25:58.829Z,1009.68
2019-05-26T05:26:39.388Z,1009.77
2019-05-26T05:27:19.947Z,1009.77
2019-05-26T05:28:00.504Z,1009.78
2019-05-26T05:28:41.092Z,1009.81
2019-05-26T05:29:21.654Z,1009.82
2019-05-26T05:30:02.254Z,1009.81
2019-05-26T05:30:42.819Z,1009.86
2019-05-26T05:31:23.381Z,1009.84
2019-05-26T05:32:03.948Z,1009.85
2019-05-26T05:32:44.528Z,1009.86
2019-05-26T05:33:25.118Z,1009.94
2019-05-26T05:34:05.682Z,1009.92
2019-05-26T05:34:46.249Z,1009.89
2019-05-26T05:35:26.827Z,1009.91
2019-05-26T05:36:07.398Z,1009.9
2019-05-26T05:36:47.982Z,1009.95
2019-05-26T05:37:28.577Z,1009.95
2019-05-26T05:38:09.143Z,1009.99
2019-05-26T05:38:49.700Z,1009.96
2019-05-26T05:39:30.261Z,1009.97
2019-05-26T05:40:10.834Z,1009.95
2019-05-26T05:40:59.317Z,1009.99
2019-05-26T05:41:32.019Z,1009.97
2019-05-26T05:42:12.587Z,1009.93
2019-05-26T05:42:53.161Z,1009.97
2019-05-26T05:43:33.722Z,1009.95
2019-05-26T05:44:14.273Z,1009.96
2019-05-26T05:44:54.847Z,1009.85
2019-05-26T05:45:35.414Z,1009.87
2019-05-26T05:46:16.001Z,1009.89
2019-05-26T05:46:56.564Z,1009.82
2019-05-26T05:47:37.139Z,1009.86
2019-05-26T05:48:17.748Z,1009.92
2019-05-26T05:48:58.294Z,1009.92
2019-05-26T05:49:38.871Z,1009.95
2019-05-26T05:50:19.418Z,1009.93
2019-05-26T05:50:59.979Z,1009.93
2019-05-26T05:51:40.572Z,1009.94
2019-05-26T05:52:21.138Z,1009.93
2019-05-26T05:53:01.719Z,1010.01
2019-05-26T05:53:42.322Z,1010.04
2019-05-26T05:54:22.883Z,1010.01
2019-05-26T05:55:03.453Z,1010.04
2019-05-26T05:55:44.015Z,1010.08
2019-05-26T05:56:24.576Z,1010.08
2019-05-26T05:57:05.158Z,1010.11
2019-05-26T05:57:45.717Z,1010.15
2019-05-26T05:58:26.297Z,1010.1
2019-05-26T05:59:06.896Z,1010.11
2019-05-26T05:59:47.473Z,1010.09
2019-05-26T06:00:28.043Z,1010.08
2019-05-26T06:01:08.636Z,1010.03
2019-05-26T06:01:49.195Z,1009.99
2019-05-26T06:02:29.775Z,1010.04
2019-05-26T06:03:10.346Z,1010.02
2019-05-26T06:03:50.949Z,1010.04
2019-05-26T06:04:31.517Z,1010.02
2019-05-26T06:05:12.110Z,1009.96
2019-05-26T06:05:52.677Z,1009.92
2019-05-26T06:06:33.242Z,1009.92
2019-05-26T06:07:13.804Z,1009.86
2019-05-26T06:07:54.367Z,1009.85
2019-05-26T06:08:34.983Z,1009.84
2019-05-26T06:09:15.592Z,1009.77
2019-05-26T06:09:56.197Z,1009.84
2019-05-26T06:10:36.751Z,1009.8
2019-05-26T06:11:17.521Z,1009.77
2019-05-26T06:11:57.934Z,1009.72
2019-05-26T06:12:38.507Z,1009.76
2019-05-26T06:13:19.083Z,1009.7
2019-05-26T06:13:59.657Z,1009.7
2019-05-26T06:14:40.223Z,1009.68
2019-05-26T06:15:20.814Z,1009.69
2019-05-26T06:16:01.368Z,1009.69
2019-05-26T06:16:41.944Z,1009.68
2019-05-26T06:17:22.570Z,1009.67
2019-05-26T06:18:03.155Z,1009.7
2019-05-26T06:18:43.706Z,1009.68
2019-05-26T06:19:24.261Z,1009.69
2019-05-26T06:20:04.904Z,1009.67
2019-05-26T06:20:45.461Z,1009.68
2019-05-26T06:21:26.109Z,1009.61
2019-05-26T06:22:06.707Z,1009.71
2019-05-26T06:22:47.290Z,1009.68
2019-05-26T06:23:27.864Z,1009.65
2019-05-26T06:24:08.472Z,1009.66
2019-05-26T06:24:49.020Z,1009.62
2019-05-26T06:25:29.584Z,1009.64
2019-05-26T06:26:10.171Z,1009.69
2019-05-26T06:26:50.749Z,1009.66
2019-05-26T06:27:31.322Z,1009.65
2019-05-26T06:28:11.913Z,1009.63
2019-05-26T06:28:52.849Z,1009.6
2019-05-26T06:29:33.094Z,1009.65
2019-05-26T06:30:13.653Z,1009.64
2019-05-26T06:30:54.239Z,1009.66
2019-05-26T06:31:34.930Z,1009.73
2019-05-26T06:32:15.696Z,1009.8
2019-05-26T06:32:55.952Z,1009.85
2019-05-26T06:33:36.520Z,1009.85
2019-05-26T06:34:17.097Z,1009.77
2019-05-26T06:34:57.706Z,1009.76
2019-05-26T06:35:38.261Z,1009.75
2019-05-26T06:36:18.822Z,1009.79
2019-05-26T06:36:59.406Z,1009.76
2019-05-26T06:37:39.985Z,1009.73
2019-05-26T06:38:20.545Z,1009.72
2019-05-26T06:39:01.111Z,1009.6
2019-05-26T06:39:41.669Z,1009.61
2019-05-26T06:40:22.225Z,1009.62
2019-05-26T06:41:02.807Z,1009.56
2019-05-26T06:41:43.384Z,1009.58
2019-05-26T06:42:23.960Z,1009.58
2019-05-26T06:43:04.518Z,1009.56
2019-05-26T06:43:45.081Z,1009.53
2019-05-26T06:44:25.652Z,1009.54
2019-05-26T06:45:06.229Z,1009.54
2019-05-26T06:45:46.799Z,1009.55
2019-05-26T06:46:27.385Z,1009.52
2019-05-26T06:47:07.972Z,1009.56
2019-05-26T06:47:48.543Z,1009.55
2019-05-26T06:48:29.114Z,1009.57
2019-05-26T06:49:09.690Z,1009.57
2019-05-26T06:49:50.269Z,1009.55
2019-05-26T06:50:30.831Z,1009.51
2019-05-26T06:51:11.437Z,1009.54
2019-05-26T06:51:51.980Z,1009.53
2019-05-26T06:52:32.551Z,1009.52
2019-05-26T06:53:13.163Z,1009.51
2019-05-26T06:53:53.749Z,1009.5
2019-05-26T06:54:34.333Z,1009.53
2019-05-26T06:55:14.927Z,1009.5
2019-05-26T06:55:55.488Z,1009.49
2019-05-26T06:56:36.102Z,1009.51
2019-05-26T06:57:16.669Z,1009.5
2019-05-26T06:57:57.254Z,1009.51
2019-05-26T06:58:37.836Z,1009.48
2019-05-26T06:59:18.407Z,1009.53
2019-05-26T06:59:59.002Z,1009.47
2019-05-26T07:00:39.585Z,1009.45
2019-05-26T07:01:20.191Z,1009.46
2019-05-26T07:02:00.817Z,1009.48
2019-05-26T07:02:41.357Z,1009.48
2019-05-26T07:03:22.565Z,1009.41
2019-05-26T07:04:03.150Z,1009.41
2019-05-26T07:04:43.716Z,1009.45
2019-05-26T07:05:24.357Z,1009.45
2019-05-26T07:06:04.898Z,1009.54
2019-05-26T07:06:45.461Z,1009.51
2019-05-26T07:07:26.026Z,1009.5
2019-05-26T07:08:06.610Z,1009.47
2019-05-26T07:08:47.181Z,1009.46
2019-05-26T07:09:27.793Z,1009.47
2019-05-26T07:10:08.380Z,1009.47
2019-05-26T07:10:48.971Z,1009.46
2019-05-26T07:11:29.579Z,1009.48
2019-05-26T07:12:10.146Z,1009.43
2019-05-26T07:12:50.750Z,1009.42
2019-05-26T07:13:31.373Z,1009.42
2019-05-26T07:14:11.949Z,1009.42
2019-05-26T07:14:52.523Z,1009.41
2019-05-26T07:15:33.111Z,1009.41
2019-05-26T07:16:13.657Z,1009.38
2019-05-26T07:16:54.238Z,1009.36
2019-05-26T07:17:34.810Z,1009.38
2019-05-26T07:18:15.416Z,1009.36
2019-05-26T07:18:55.963Z,1009.36
2019-05-26T07:19:36.548Z,1009.36
2019-05-26T07:20:17.152Z,1009.33
2019-05-26T07:20:57.691Z,1009.35
2019-05-26T07:21:38.270Z,1009.34
2019-05-26T07:22:18.834Z,1009.3
2019-05-26T07:22:59.435Z,1009.29
2019-05-26T07:23:40.011Z,1009.28
2019-05-26T07:24:20.607Z,1009.3
2019-05-26T07:25:01.184Z,1009.27
2019-05-26T07:25:41.825Z,1009.28
2019-05-26T07:26:22.382Z,1009.25
2019-05-26T07:27:02.965Z,1009.24
2019-05-26T07:27:43.576Z,1009.25
2019-05-26T07:28:24.561Z,1009.17
2019-05-26T07:29:05.175Z,1009.22
2019-05-26T07:29:45.825Z,1009.21
2019-05-26T07:30:26.459Z,1009.23
2019-05-26T07:31:07.031Z,1009.21
2019-05-26T07:31:47.631Z,1009.16
2019-05-26T07:32:28.271Z,1009.17
2019-05-26T07:33:08.863Z,1009.16
2019-05-26T07:33:49.426Z,1009.17
2019-05-26T07:34:30.018Z,1009.16
2019-05-26T07:35:10.603Z,1009.16
2019-05-26T07:35:51.214Z,1009.15
2019-05-26T07:36:31.777Z,1009.11
2019-05-26T07:37:12.369Z,1009.18
2019-05-26T07:37:52.954Z,1009.2
2019-05-26T07:38:33.516Z,1009.13
2019-05-26T07:39:14.088Z,1009.17
2019-05-26T07:39:54.703Z,1009.13
2019-05-26T07:40:35.271Z,1009.12
2019-05-26T07:41:15.848Z,1009.1
2019-05-26T07:42:09.071Z,1009.07
2019-05-26T07:42:37.079Z,1009.05
2019-05-26T07:43:17.631Z,1009.07
2019-05-26T07:43:58.215Z,1009.09
2019-05-26T07:44:38.799Z,1009.07
2019-05-26T07:45:19.375Z,1009.04
2019-05-26T07:45:59.953Z,1009.06
2019-05-26T07:46:40.513Z,1009.08
2019-05-26T07:47:21.086Z,1009.04
2019-05-26T07:48:01.701Z,1008.99
2019-05-26T07:48:42.255Z,1008.99
2019-05-26T07:49:22.859Z,1009.01
2019-05-26T07:50:03.438Z,1008.99
2019-05-26T07:50:44.020Z,1009.01
2019-05-26T07:51:24.612Z,1009.01
2019-05-26T07:52:05.189Z,1008.99
2019-05-26T07:52:45.808Z,1009.01
2019-05-26T07:53:26.402Z,1008.97
2019-05-26T07:54:06.966Z,1008.95
2019-05-26T07:54:47.527Z,1008.95
2019-05-26T07:55:28.132Z,1008.98
2019-05-26T07:56:08.736Z,1009
2019-05-26T07:56:49.326Z,1008.95
2019-05-26T07:57:29.914Z,1008.96
2019-05-26T07:58:10.485Z,1008.95
2019-05-26T07:58:51.047Z,1008.99
2019-05-26T07:59:31.629Z,1009
2019-05-26T08:00:12.207Z,1008.99
2019-05-26T08:00:52.779Z,1008.99
2019-05-26T08:01:36.017Z,1009.02
2019-05-26T08:02:13.939Z,1009
2019-05-26T08:02:54.507Z,1009.06
2019-05-26T08:03:35.080Z,1009
2019-05-26T08:04:15.768Z,1009
2019-05-26T08:04:57.168Z,1008.97
2019-05-26T08:05:38.143Z,1009
2019-05-26T08:06:19.228Z,1008.98
2019-05-26T08:07:00.193Z,1009.01
2019-05-26T08:07:40.953Z,1008.99
2019-05-26T08:08:21.515Z,1008.97
2019-05-26T08:09:02.320Z,1009.03
2019-05-26T08:09:42.901Z,1009.01
2019-05-26T08:10:23.497Z,1008.99
2019-05-26T08:11:04.056Z,1008.94
2019-05-26T08:11:44.667Z,1009
2019-05-26T08:12:28.316Z,1009.01
2019-05-26T08:13:06.102Z,1009.01
2019-05-26T08:13:47.075Z,1009.02
2019-05-26T08:14:27.699Z,1009.01
2019-05-26T08:15:08.715Z,1008.95
2019-05-26T08:15:49.740Z,1009.01
2019-05-26T08:16:31.538Z,1008.99
2019-05-26T08:17:12.431Z,1008.98
2019-05-26T08:17:52.995Z,1008.95
2019-05-26T08:18:33.597Z,1008.94
2019-05-26T08:19:14.154Z,1008.91
2019-05-26T08:19:54.919Z,1008.89